No1 Tokuyama — JK5318 — position and weather

sailwx.info

Track history (hours):
 
Tides and Currents Weather Stations Pressure Air Temp Water Temp Dewpoint Dewpoint Depression Visibility Wind Speed Wind Dir Waves Ship Positions

No1 Tokuyama

Last reported at 2015-May-02 09:08 UTC. Time now 2015-May-05 13:15 UTC.
Position N 33°59' E 130°35'.

Length 110 m; draft 5.5 m.

Type: Cargo ship. MMSI: 431400487.

Date/timePositionNaut miles runAvg speedWind from/ knotsBaromVisibWave heightAir tempDewpointWater temp
2015-May-02 09:08N 33°59' E 130°35'812.4
2015-May-02 08:31N 33°54' E 130°28'1312.9
2015-May-02 07:33N 33°45' E 130°18'9 9.1
2015-May-02 06:33N 33°37' E 130°24'0 0.1
2015-May-02 05:33N 33°37' E 130°24'0 0.0
2015-May-02 04:33N 33°37' E 130°24'0 0.1
2015-May-02 03:33N 33°37' E 130°24'0 0.0
2015-May-02 02:31N 33°37' E 130°24'0 0.0
2015-May-02 01:33N 33°37' E 130°24'0 0.0
2015-May-02 00:29N 33°37' E 130°24'0 0.0
2015-May-01 23:31N 33°37' E 130°24'0 0.1
2015-May-01 22:33N 33°37' E 130°24'3 3.4
2015-May-01 21:32N 33°38' E 130°20'0 0.0
2015-May-01 20:33N 33°38' E 130°20'7 6.6
2015-May-01 19:33N 33°43' E 130°16'1212.0
2015-May-01 18:32N 33°55' E 130°22'215 5.6
2015-Apr-30 04:14N 34°13' E 134°41'911.9
2015-Apr-30 03:31N 34°06' E 134°47'1414.1
2015-Apr-30 02:30N 33°54' E 134°57'18412.0
2015-Apr-29 11:10N 34°32' E 138°36'5113.1
2015-Apr-29 07:16N 34°58' E 139°29'1013.6
2015-Apr-29 06:33N 35°04' E 139°38'1212.4
2015-Apr-29 05:34N 35°15' E 139°46'1111.2
2015-Apr-29 04:33N 35°26' E 139°45'4 3.9
2015-Apr-29 03:33N 35°30' E 139°44'0 0.0
2015-Apr-29 02:33N 35°30' E 139°44'0 0.0
2015-Apr-29 01:33N 35°30' E 139°44'0 0.0
2015-Apr-29 00:30N 35°30' E 139°44'0 0.0
2015-Apr-28 23:33N 35°30' E 139°44'1 1.3
2015-Apr-28 22:33N 35°29' E 139°43'8 8.3
2015-Apr-28 21:33N 35°30' E 139°53'2 1.8
2015-Apr-28 20:32N 35°29' E 139°55'0 0.1
2015-Apr-28 19:32N 35°29' E 139°55'0 0.0
2015-Apr-28 18:29N 35°29' E 139°55'0 0.0
2015-Apr-28 17:26N 35°29' E 139°55'0 0.0
2015-Apr-28 16:32N 35°29' E 139°55'0 0.0
2015-Apr-28 15:26N 35°29' E 139°55'0 0.0
2015-Apr-28 14:32N 35°29' E 139°55'0 0.0
2015-Apr-28 13:29N 35°29' E 139°55'0 0.0
2015-Apr-28 12:32N 35°29' E 139°55'0 0.0
2015-Apr-28 11:32N 35°29' E 139°55'0 0.0
2015-Apr-28 10:32N 35°29' E 139°55'0 0.0
2015-Apr-28 09:32N 35°29' E 139°55'0 0.0
2015-Apr-28 08:32N 35°29' E 139°55'0 0.1
2015-Apr-28 07:33N 35°29' E 139°55'3 2.6
2015-Apr-28 06:23N 35°27' E 139°58'0 0.0
2015-Apr-28 05:29N 35°27' E 139°58'0 0.0
2015-Apr-28 04:17N 35°27' E 139°58'0 0.0
2015-Apr-28 03:23N 35°27' E 139°58'0 0.0
2015-Apr-28 02:29N 35°27' E 139°58'0 0.0
2015-Apr-28 01:32N 35°27' E 139°58'0 0.0
2015-Apr-28 00:17N 35°27' E 139°58'0 0.0
2015-Apr-27 23:17N 35°27' E 139°58'0 0.0
2015-Apr-27 22:29N 35°27' E 139°58'0 0.0
2015-Apr-27 21:17N 35°27' E 139°58'0 0.0
2015-Apr-27 20:05N 35°27' E 139°58'0 0.0
2015-Apr-27 18:23N 35°27' E 139°58'0 0.0
2015-Apr-27 17:29N 35°27' E 139°58'0 0.0
2015-Apr-27 16:29N 35°27' E 139°58'0 0.0
2015-Apr-27 15:29N 35°27' E 139°58'0 0.0
2015-Apr-27 14:29N 35°27' E 139°58'0 0.0
2015-Apr-27 13:17N 35°27' E 139°58'0 0.0
2015-Apr-27 12:05N 35°27' E 139°58'0 0.0
2015-Apr-27 11:23N 35°27' E 139°58'0 0.0
2015-Apr-27 10:29N 35°27' E 139°58'0 0.0
2015-Apr-27 09:17N 35°27' E 139°58'0 0.0
2015-Apr-27 08:29N 35°27' E 139°58'0 0.0
2015-Apr-27 07:29N 35°27' E 139°58'0 0.0
2015-Apr-27 06:29N 35°27' E 139°58'0 0.0
2015-Apr-27 05:17N 35°27' E 139°58'0 0.0
2015-Apr-27 04:23N 35°27' E 139°58'0 0.0
2015-Apr-27 03:29N 35°27' E 139°58'0 0.0
2015-Apr-27 02:23N 35°27' E 139°58'0 0.0
2015-Apr-27 01:29N 35°27' E 139°58'0 0.0
2015-Apr-27 00:29N 35°27' E 139°58'0 0.0
2015-Apr-26 23:23N 35°27' E 139°58'2 2.5
2015-Apr-26 22:33N 35°29' E 139°57'1 0.9
2015-Apr-26 21:25N 35°29' E 139°56'0 0.0
2015-Apr-26 20:28N 35°29' E 139°56'0 0.1
2015-Apr-26 19:31N 35°29' E 139°56'0 0.0
2015-Apr-26 18:31N 35°29' E 139°56'0 0.0
2015-Apr-26 17:31N 35°29' E 139°56'0 0.0
2015-Apr-26 16:31N 35°29' E 139°56'0 0.0
2015-Apr-26 15:31N 35°29' E 139°56'0 0.1
2015-Apr-26 14:31N 35°29' E 139°56'0 0.1
2015-Apr-26 13:31N 35°29' E 139°56'0 0.1
2015-Apr-26 12:31N 35°29' E 139°56'0 0.1
2015-Apr-26 11:31N 35°29' E 139°56'0 0.0
2015-Apr-26 10:28N 35°29' E 139°56'0 0.0
2015-Apr-26 09:31N 35°29' E 139°56'0 0.0
2015-Apr-26 08:31N 35°29' E 139°56'0 0.1
2015-Apr-26 07:31N 35°29' E 139°56'0 0.1
2015-Apr-26 06:31N 35°29' E 139°56'0 0.0
2015-Apr-26 05:31N 35°29' E 139°56'0 0.0
2015-Apr-26 04:31N 35°29' E 139°56'0 0.0
2015-Apr-26 03:31N 35°29' E 139°56'0 0.0
2015-Apr-26 02:31N 35°29' E 139°56'0 0.0
2015-Apr-26 01:31N 35°29' E 139°56'0 0.0
2015-Apr-26 00:31N 35°29' E 139°56'0 0.0
2015-Apr-25 23:31N 35°29' E 139°56'0 0.0
2015-Apr-25 22:31N 35°29' E 139°56'0 0.0
2015-Apr-25 21:31N 35°29' E 139°56'0 0.0
2015-Apr-25 20:31N 35°29' E 139°56'0 0.0
2015-Apr-25 19:31N 35°29' E 139°56'0 0.0
2015-Apr-25 18:31N 35°29' E 139°56'0 0.0
2015-Apr-25 17:31N 35°29' E 139°56'0 0.0
2015-Apr-25 16:31N 35°29' E 139°56'0 0.0
2015-Apr-25 15:31N 35°29' E 139°56'0 0.0
2015-Apr-25 14:31N 35°29' E 139°56'0 0.0
2015-Apr-25 13:31N 35°29' E 139°56'0 0.0
2015-Apr-25 12:31N 35°29' E 139°56'0 0.0
2015-Apr-25 11:31N 35°29' E 139°56'0 0.0
2015-Apr-25 10:31N 35°29' E 139°56'0 0.0
2015-Apr-25 09:31N 35°29' E 139°56'0 0.0
2015-Apr-25 08:31N 35°29' E 139°56'0 0.0
2015-Apr-25 07:31N 35°29' E 139°56'1 1.1
2015-Apr-25 06:34N 35°29' E 139°55'1111.2
2015-Apr-25 05:33N 35°22' E 139°45'1110.9
2015-Apr-25 04:33N 35°11' E 139°46'1211.9
2015-Apr-25 03:33N 35°01' E 139°38'6011.0
2015-Apr-24 22:07N 34°31' E 138°35'  
Track history (hours):
 
Tides and Currents Weather Stations Pressure Air Temp Water Temp Dewpoint Dewpoint Depression Visibility Wind Speed Wind Dir Waves Ship Positions

No1 Tokuyama

Last reported at 2015-May-02 09:08 UTC. Time now 2015-May-05 13:15 UTC.
Position N 33°59' E 130°35'.

Length 110 m; draft 5.5 m.

Type: Cargo ship. MMSI: 431400487.

Date/timePositionNaut miles runAvg speedWind from/ knotsBaromVisibWave heightAir tempDewpointWater temp
2015-May-02 09:08N 33°59' E 130°35'812.4
2015-May-02 08:31N 33°54' E 130°28'1312.9
2015-May-02 07:33N 33°45' E 130°18'9 9.1
2015-May-02 06:33N 33°37' E 130°24'0 0.1
2015-May-02 05:33N 33°37' E 130°24'0 0.0
2015-May-02 04:33N 33°37' E 130°24'0 0.1
2015-May-02 03:33N 33°37' E 130°24'0 0.0
2015-May-02 02:31N 33°37' E 130°24'0 0.0
2015-May-02 01:33N 33°37' E 130°24'0 0.0
2015-May-02 00:29N 33°37' E 130°24'0 0.0
2015-May-01 23:31N 33°37' E 130°24'0 0.1
2015-May-01 22:33N 33°37' E 130°24'3 3.4
2015-May-01 21:32N 33°38' E 130°20'0 0.0
2015-May-01 20:33N 33°38' E 130°20'7 6.6
2015-May-01 19:33N 33°43' E 130°16'1212.0
2015-May-01 18:32N 33°55' E 130°22'215 5.6
2015-Apr-30 04:14N 34°13' E 134°41'911.9
2015-Apr-30 03:31N 34°06' E 134°47'1414.1
2015-Apr-30 02:30N 33°54' E 134°57'18412.0
2015-Apr-29 11:10N 34°32' E 138°36'5113.1
2015-Apr-29 07:16N 34°58' E 139°29'1013.6
2015-Apr-29 06:33N 35°04' E 139°38'1212.4
2015-Apr-29 05:34N 35°15' E 139°46'1111.2
2015-Apr-29 04:33N 35°26' E 139°45'4 3.9
2015-Apr-29 03:33N 35°30' E 139°44'0 0.0
2015-Apr-29 02:33N 35°30' E 139°44'0 0.0
2015-Apr-29 01:33N 35°30' E 139°44'0 0.0
2015-Apr-29 00:30N 35°30' E 139°44'0 0.0
2015-Apr-28 23:33N 35°30' E 139°44'1 1.3
2015-Apr-28 22:33N 35°29' E 139°43'8 8.3
2015-Apr-28 21:33N 35°30' E 139°53'2 1.8
2015-Apr-28 20:32N 35°29' E 139°55'0 0.1
2015-Apr-28 19:32N 35°29' E 139°55'0 0.0
2015-Apr-28 18:29N 35°29' E 139°55'0 0.0
2015-Apr-28 17:26N 35°29' E 139°55'0 0.0
2015-Apr-28 16:32N 35°29' E 139°55'0 0.0
2015-Apr-28 15:26N 35°29' E 139°55'0 0.0
2015-Apr-28 14:32N 35°29' E 139°55'0 0.0
2015-Apr-28 13:29N 35°29' E 139°55'0 0.0
2015-Apr-28 12:32N 35°29' E 139°55'0 0.0
2015-Apr-28 11:32N 35°29' E 139°55'0 0.0
2015-Apr-28 10:32N 35°29' E 139°55'0 0.0
2015-Apr-28 09:32N 35°29' E 139°55'0 0.0
2015-Apr-28 08:32N 35°29' E 139°55'0 0.1
2015-Apr-28 07:33N 35°29' E 139°55'3 2.6
2015-Apr-28 06:23N 35°27' E 139°58'0 0.0
2015-Apr-28 05:29N 35°27' E 139°58'0 0.0
2015-Apr-28 04:17N 35°27' E 139°58'0 0.0
2015-Apr-28 03:23N 35°27' E 139°58'0 0.0
2015-Apr-28 02:29N 35°27' E 139°58'0 0.0
2015-Apr-28 01:32N 35°27' E 139°58'0 0.0
2015-Apr-28 00:17N 35°27' E 139°58'0 0.0
2015-Apr-27 23:17N 35°27' E 139°58'0 0.0
2015-Apr-27 22:29N 35°27' E 139°58'0 0.0
2015-Apr-27 21:17N 35°27' E 139°58'0 0.0
2015-Apr-27 20:05N 35°27' E 139°58'0 0.0
2015-Apr-27 18:23N 35°27' E 139°58'0 0.0
2015-Apr-27 17:29N 35°27' E 139°58'0 0.0
2015-Apr-27 16:29N 35°27' E 139°58'0 0.0
2015-Apr-27 15:29N 35°27' E 139°58'0 0.0
2015-Apr-27 14:29N 35°27' E 139°58'0 0.0
2015-Apr-27 13:17N 35°27' E 139°58'0 0.0
2015-Apr-27 12:05N 35°27' E 139°58'0 0.0
2015-Apr-27 11:23N 35°27' E 139°58'0 0.0
2015-Apr-27 10:29N 35°27' E 139°58'0 0.0
2015-Apr-27 09:17N 35°27' E 139°58'0 0.0
2015-Apr-27 08:29N 35°27' E 139°58'0 0.0
2015-Apr-27 07:29N 35°27' E 139°58'0 0.0
2015-Apr-27 06:29N 35°27' E 139°58'0 0.0
2015-Apr-27 05:17N 35°27' E 139°58'0 0.0
2015-Apr-27 04:23N 35°27' E 139°58'0 0.0
2015-Apr-27 03:29N 35°27' E 139°58'0 0.0
2015-Apr-27 02:23N 35°27' E 139°58'0 0.0
2015-Apr-27 01:29N 35°27' E 139°58'0 0.0
2015-Apr-27 00:29N 35°27' E 139°58'0 0.0
2015-Apr-26 23:23N 35°27' E 139°58'2 2.5
2015-Apr-26 22:33N 35°29' E 139°57'1 0.9
2015-Apr-26 21:25N 35°29' E 139°56'0 0.0
2015-Apr-26 20:28N 35°29' E 139°56'0 0.1
2015-Apr-26 19:31N 35°29' E 139°56'0 0.0
2015-Apr-26 18:31N 35°29' E 139°56'0 0.0
2015-Apr-26 17:31N 35°29' E 139°56'0 0.0
2015-Apr-26 16:31N 35°29' E 139°56'0 0.0
2015-Apr-26 15:31N 35°29' E 139°56'0 0.1
2015-Apr-26 14:31N 35°29' E 139°56'0 0.1
2015-Apr-26 13:31N 35°29' E 139°56'0 0.1
2015-Apr-26 12:31N 35°29' E 139°56'0 0.1
2015-Apr-26 11:31N 35°29' E 139°56'0 0.0
2015-Apr-26 10:28N 35°29' E 139°56'0 0.0
2015-Apr-26 09:31N 35°29' E 139°56'0 0.0
2015-Apr-26 08:31N 35°29' E 139°56'0 0.1
2015-Apr-26 07:31N 35°29' E 139°56'0 0.1
2015-Apr-26 06:31N 35°29' E 139°56'0 0.0
2015-Apr-26 05:31N 35°29' E 139°56'0 0.0
2015-Apr-26 04:31N 35°29' E 139°56'0 0.0
2015-Apr-26 03:31N 35°29' E 139°56'0 0.0
2015-Apr-26 02:31N 35°29' E 139°56'0 0.0
2015-Apr-26 01:31N 35°29' E 139°56'0 0.0
2015-Apr-26 00:31N 35°29' E 139°56'0 0.0
2015-Apr-25 23:31N 35°29' E 139°56'0 0.0
2015-Apr-25 22:31N 35°29' E 139°56'0 0.0
2015-Apr-25 21:31N 35°29' E 139°56'0 0.0
2015-Apr-25 20:31N 35°29' E 139°56'0 0.0
2015-Apr-25 19:31N 35°29' E 139°56'0 0.0
2015-Apr-25 18:31N 35°29' E 139°56'0 0.0
2015-Apr-25 17:31N 35°29' E 139°56'0 0.0
2015-Apr-25 16:31N 35°29' E 139°56'0 0.0
2015-Apr-25 15:31N 35°29' E 139°56'0 0.0
2015-Apr-25 14:31N 35°29' E 139°56'0 0.0
2015-Apr-25 13:31N 35°29' E 139°56'0 0.0
2015-Apr-25 12:31N 35°29' E 139°56'0 0.0
2015-Apr-25 11:31N 35°29' E 139°56'0 0.0
2015-Apr-25 10:31N 35°29' E 139°56'0 0.0
2015-Apr-25 09:31N 35°29' E 139°56'0 0.0
2015-Apr-25 08:31N 35°29' E 139°56'0 0.0
2015-Apr-25 07:31N 35°29' E 139°56'1 1.1
2015-Apr-25 06:34N 35°29' E 139°55'1111.2
2015-Apr-25 05:33N 35°22' E 139°45'1110.9
2015-Apr-25 04:33N 35°11' E 139°46'1211.9
2015-Apr-25 03:33N 35°01' E 139°38'6011.0
2015-Apr-24 22:07N 34°31' E 138°35'  

Dump ship's entire track history